sensor_id;sensor_type;location;lat;lon;timestamp;temperature;humidity
42479;DHT22;28110;47.080;9.476;2024-03-23T00:54:19;11.50;95.20
42479;DHT22;28110;47.080;9.476;2024-03-23T00:56:44;11.50;95.20
42479;DHT22;28110;47.080;9.476;2024-03-23T00:59:10;11.50;95.00
42479;DHT22;28110;47.080;9.476;2024-03-23T01:01:35;11.40;95.80
42479;DHT22;28110;47.080;9.476;2024-03-23T01:04:01;11.40;95.90
42479;DHT22;28110;47.080;9.476;2024-03-23T01:06:27;11.30;95.90
42479;DHT22;28110;47.080;9.476;2024-03-23T01:08:53;11.30;95.80
42479;DHT22;28110;47.080;9.476;2024-03-23T01:11:18;11.30;95.80
42479;DHT22;28110;47.080;9.476;2024-03-23T01:13:44;11.30;95.40
42479;DHT22;28110;47.080;9.476;2024-03-23T01:16:10;11.30;94.80
42479;DHT22;28110;47.080;9.476;2024-03-23T01:18:35;11.30;94.30
42479;DHT22;28110;47.080;9.476;2024-03-23T01:21:01;11.30;94.50
42479;DHT22;28110;47.080;9.476;2024-03-23T01:23:26;11.40;95.00
42479;DHT22;28110;47.080;9.476;2024-03-23T01:25:53;11.30;94.30
42479;DHT22;28110;47.080;9.476;2024-03-23T01:28:19;11.30;95.20
42479;DHT22;28110;47.080;9.476;2024-03-23T01:30:45;11.30;95.60
42479;DHT22;28110;47.080;9.476;2024-03-23T01:33:10;11.30;95.30
42479;DHT22;28110;47.080;9.476;2024-03-23T01:35:36;11.20;95.70
42479;DHT22;28110;47.080;9.476;2024-03-23T01:38:03;11.20;96.00
42479;DHT22;28110;47.080;9.476;2024-03-23T01:40:28;11.10;96.20
42479;DHT22;28110;47.080;9.476;2024-03-23T01:42:58;11.10;96.30
42479;DHT22;28110;47.080;9.476;2024-03-23T01:45:24;11.10;95.90
42479;DHT22;28110;47.080;9.476;2024-03-23T01:47:53;11.00;96.60
42479;DHT22;28110;47.080;9.476;2024-03-23T01:50:19;10.90;96.40
42479;DHT22;28110;47.080;9.476;2024-03-23T01:52:46;10.90;96.10
42479;DHT22;28110;47.080;9.476;2024-03-23T01:55:12;10.90;94.90
42479;DHT22;28110;47.080;9.476;2024-03-23T01:57:37;11.10;93.90
42479;DHT22;28110;47.080;9.476;2024-03-23T02:00:03;11.20;94.40
42479;DHT22;28110;47.080;9.476;2024-03-23T02:02:29;11.20;94.10
42479;DHT22;28110;47.080;9.476;2024-03-23T02:04:55;11.20;94.40
42479;DHT22;28110;47.080;9.476;2024-03-23T02:07:20;11.10;94.70
42479;DHT22;28110;47.080;9.476;2024-03-23T02:09:46;11.00;94.80
42479;DHT22;28110;47.080;9.476;2024-03-23T02:12:11;10.90;94.40
42479;DHT22;28110;47.080;9.476;2024-03-23T02:14:37;11.00;94.50
42479;DHT22;28110;47.080;9.476;2024-03-23T02:17:03;11.00;94.60
42479;DHT22;28110;47.080;9.476;2024-03-23T02:19:29;11.00;95.00
42479;DHT22;28110;47.080;9.476;2024-03-23T02:21:54;11.00;94.80
42479;DHT22;28110;47.080;9.476;2024-03-23T02:24:20;11.00;94.70
42479;DHT22;28110;47.080;9.476;2024-03-23T02:26:45;11.10;94.00
42479;DHT22;28110;47.080;9.476;2024-03-23T02:29:13;11.10;94.20
42479;DHT22;28110;47.080;9.476;2024-03-23T02:31:39;11.10;94.90
42479;DHT22;28110;47.080;9.476;2024-03-23T02:34:04;11.00;95.40
42479;DHT22;28110;47.080;9.476;2024-03-23T02:36:30;10.90;95.60
42479;DHT22;28110;47.080;9.476;2024-03-23T02:38:56;10.80;95.50
42479;DHT22;28110;47.080;9.476;2024-03-23T02:41:22;10.80;95.10
42479;DHT22;28110;47.080;9.476;2024-03-23T02:43:52;10.90;94.20
42479;DHT22;28110;47.080;9.476;2024-03-23T02:46:17;11.00;94.30
42479;DHT22;28110;47.080;9.476;2024-03-23T02:48:43;11.10;93.90
42479;DHT22;28110;47.080;9.476;2024-03-23T02:51:09;11.00;94.40
42479;DHT22;28110;47.080;9.476;2024-03-23T02:53:34;10.90;94.40
42479;DHT22;28110;47.080;9.476;2024-03-23T02:56:00;10.90;94.40
42479;DHT22;28110;47.080;9.476;2024-03-23T02:58:25;10.90;94.50
42479;DHT22;28110;47.080;9.476;2024-03-23T03:00:51;10.80;94.40
42479;DHT22;28110;47.080;9.476;2024-03-23T03:03:16;10.80;94.30
42479;DHT22;28110;47.080;9.476;2024-03-23T03:05:42;10.80;93.60
42479;DHT22;28110;47.080;9.476;2024-03-23T03:08:08;10.80;93.80
42479;DHT22;28110;47.080;9.476;2024-03-23T03:10:34;10.90;93.30
42479;DHT22;28110;47.080;9.476;2024-03-23T03:13:01;10.90;93.20
42479;DHT22;28110;47.080;9.476;2024-03-23T03:15:27;10.90;93.20
42479;DHT22;28110;47.080;9.476;2024-03-23T03:17:53;10.90;93.00
42479;DHT22;28110;47.080;9.476;2024-03-23T03:20:18;10.90;93.30
42479;DHT22;28110;47.080;9.476;2024-03-23T03:22:44;10.80;93.40
42479;DHT22;28110;47.080;9.476;2024-03-23T03:25:09;10.80;93.40
42479;DHT22;28110;47.080;9.476;2024-03-23T03:27:35;10.80;92.80
42479;DHT22;28110;47.080;9.476;2024-03-23T03:30:01;10.80;92.50
42479;DHT22;28110;47.080;9.476;2024-03-23T03:32:29;10.80;92.00
42479;DHT22;28110;47.080;9.476;2024-03-23T03:34:54;10.90;92.60
42479;DHT22;28110;47.080;9.476;2024-03-23T03:37:20;10.80;93.10
42479;DHT22;28110;47.080;9.476;2024-03-23T03:39:45;10.80;93.00
42479;DHT22;28110;47.080;9.476;2024-03-23T03:42:11;10.80;92.70
42479;DHT22;28110;47.080;9.476;2024-03-23T03:44:36;10.80;92.30
42479;DHT22;28110;47.080;9.476;2024-03-23T03:47:02;10.80;92.50
42479;DHT22;28110;47.080;9.476;2024-03-23T03:49:28;10.80;92.70
42479;DHT22;28110;47.080;9.476;2024-03-23T03:51:53;10.80;92.10
42479;DHT22;28110;47.080;9.476;2024-03-23T03:54:19;10.80;92.70
42479;DHT22;28110;47.080;9.476;2024-03-23T03:56:44;10.80;92.30
42479;DHT22;28110;47.080;9.476;2024-03-23T03:59:10;10.80;92.10
42479;DHT22;28110;47.080;9.476;2024-03-23T04:01:35;10.80;92.00
42479;DHT22;28110;47.080;9.476;2024-03-23T04:04:01;10.80;91.90
42479;DHT22;28110;47.080;9.476;2024-03-23T04:06:27;10.80;91.50
42479;DHT22;28110;47.080;9.476;2024-03-23T04:08:52;10.80;91.40
42479;DHT22;28110;47.080;9.476;2024-03-23T04:11:18;10.70;92.60
42479;DHT22;28110;47.080;9.476;2024-03-23T04:13:43;10.60;92.50
42479;DHT22;28110;47.080;9.476;2024-03-23T04:16:09;10.50;92.80
42479;DHT22;28110;47.080;9.476;2024-03-23T04:18:35;10.40;93.10
42479;DHT22;28110;47.080;9.476;2024-03-23T04:21:01;10.40;93.40
42479;DHT22;28110;47.080;9.476;2024-03-23T04:23:26;10.40;92.90
42479;DHT22;28110;47.080;9.476;2024-03-23T04:25:52;10.40;92.60
42479;DHT22;28110;47.080;9.476;2024-03-23T04:28:18;10.50;92.80
42479;DHT22;28110;47.080;9.476;2024-03-23T04:30:44;10.50;92.30
42479;DHT22;28110;47.080;9.476;2024-03-23T04:33:10;10.50;92.90
42479;DHT22;28110;47.080;9.476;2024-03-23T04:35:35;10.50;92.90
42479;DHT22;28110;47.080;9.476;2024-03-23T04:38:01;10.40;93.40
42479;DHT22;28110;47.080;9.476;2024-03-23T04:40:27;10.40;93.50
42479;DHT22;28110;47.080;9.476;2024-03-23T04:42:52;10.30;93.60
42479;DHT22;28110;47.080;9.476;2024-03-23T04:45:18;10.30;93.90
42479;DHT22;28110;47.080;9.476;2024-03-23T04:47:43;10.30;94.30
42479;DHT22;28110;47.080;9.476;2024-03-23T04:50:09;10.30;94.30
42479;DHT22;28110;47.080;9.476;2024-03-23T04:52:36;10.30;93.90
42479;DHT22;28110;47.080;9.476;2024-03-23T04:55:01;10.20;94.30
42479;DHT22;28110;47.080;9.476;2024-03-23T04:57:27;10.20;94.40
42479;DHT22;28110;47.080;9.476;2024-03-23T04:59:53;10.20;94.40
42479;DHT22;28110;47.080;9.476;2024-03-23T05:02:18;10.20;93.80
42479;DHT22;28110;47.080;9.476;2024-03-23T05:04:44;10.20;93.50
42479;DHT22;28110;47.080;9.476;2024-03-23T05:07:09;10.20;93.50
42479;DHT22;28110;47.080;9.476;2024-03-23T05:09:35;10.30;93.20
42479;DHT22;28110;47.080;9.476;2024-03-23T05:12:00;10.30;92.60
42479;DHT22;28110;47.080;9.476;2024-03-23T05:14:26;10.30;92.40
42479;DHT22;28110;47.080;9.476;2024-03-23T05:16:52;10.30;92.60
42479;DHT22;28110;47.080;9.476;2024-03-23T05:19:18;10.40;92.50
42479;DHT22;28110;47.080;9.476;2024-03-23T05:21:44;10.30;93.00
42479;DHT22;28110;47.080;9.476;2024-03-23T05:24:09;10.20;93.30
42479;DHT22;28110;47.080;9.476;2024-03-23T05:26:35;10.20;93.30
42479;DHT22;28110;47.080;9.476;2024-03-23T05:29:02;10.20;93.00
42479;DHT22;28110;47.080;9.476;2024-03-23T05:31:29;10.30;93.00
42479;DHT22;28110;47.080;9.476;2024-03-23T05:33:55;10.40;92.90
42479;DHT22;28110;47.080;9.476;2024-03-23T05:36:21;10.40;92.60
42479;DHT22;28110;47.080;9.476;2024-03-23T05:38:47;10.50;91.90
42479;DHT22;28110;47.080;9.476;2024-03-23T05:41:13;10.60;91.80
42479;DHT22;28110;47.080;9.476;2024-03-23T05:43:38;10.70;91.90
42479;DHT22;28110;47.080;9.476;2024-03-23T05:46:04;10.70;92.20
42479;DHT22;28110;47.080;9.476;2024-03-23T05:48:36;10.60;92.50
42479;DHT22;28110;47.080;9.476;2024-03-23T05:51:02;10.50;92.70
42479;DHT22;28110;47.080;9.476;2024-03-23T05:53:28;10.40;92.70
42479;DHT22;28110;47.080;9.476;2024-03-23T05:56:01;10.40;93.00
42479;DHT22;28110;47.080;9.476;2024-03-23T05:58:29;10.30;92.90
42479;DHT22;28110;47.080;9.476;2024-03-23T06:00:59;10.40;92.40
42479;DHT22;28110;47.080;9.476;2024-03-23T06:03:25;10.40;92.70
42479;DHT22;28110;47.080;9.476;2024-03-23T06:05:51;10.50;92.60
42479;DHT22;28110;47.080;9.476;2024-03-23T06:08:18;10.50;92.30
42479;DHT22;28110;47.080;9.476;2024-03-23T06:10:45;10.60;92.40
42479;DHT22;28110;47.080;9.476;2024-03-23T06:13:11;10.70;91.90
42479;DHT22;28110;47.080;9.476;2024-03-23T06:15:37;10.80;91.10
42479;DHT22;28110;47.080;9.476;2024-03-23T06:18:03;10.80;91.50
42479;DHT22;28110;47.080;9.476;2024-03-23T06:20:30;10.80;92.20
42479;DHT22;28110;47.080;9.476;2024-03-23T06:22:56;10.60;91.50
42479;DHT22;28110;47.080;9.476;2024-03-23T06:25:21;10.80;91.40
42479;DHT22;28110;47.080;9.476;2024-03-23T06:27:47;10.90;91.40
42479;DHT22;28110;47.080;9.476;2024-03-23T06:30:12;10.90;91.40
42479;DHT22;28110;47.080;9.476;2024-03-23T06:32:38;11.00;91.50
42479;DHT22;28110;47.080;9.476;2024-03-23T06:35:04;11.20;91.10
42479;DHT22;28110;47.080;9.476;2024-03-23T06:37:35;11.30;90.00
42479;DHT22;28110;47.080;9.476;2024-03-23T06:40:01;11.40;90.40
42479;DHT22;28110;47.080;9.476;2024-03-23T06:42:27;11.40;90.20
42479;DHT22;28110;47.080;9.476;2024-03-23T06:44:52;11.50;89.00
42479;DHT22;28110;47.080;9.476;2024-03-23T06:47:18;11.60;88.90
42479;DHT22;28110;47.080;9.476;2024-03-23T06:49:43;11.60;89.90
42479;DHT22;28110;47.080;9.476;2024-03-23T06:52:09;11.60;89.50
42479;DHT22;28110;47.080;9.476;2024-03-23T06:54:34;11.60;90.30
42479;DHT22;28110;47.080;9.476;2024-03-23T06:57:00;11.60;90.50
42479;DHT22;28110;47.080;9.476;2024-03-23T06:59:25;11.60;88.90
42479;DHT22;28110;47.080;9.476;2024-03-23T07:01:51;11.60;89.20
42479;DHT22;28110;47.080;9.476;2024-03-23T07:04:16;11.60;90.40
42479;DHT22;28110;47.080;9.476;2024-03-23T07:06:43;11.60;91.10
42479;DHT22;28110;47.080;9.476;2024-03-23T07:09:09;11.40;92.60
42479;DHT22;28110;47.080;9.476;2024-03-23T07:11:35;11.30;93.90
42479;DHT22;28110;47.080;9.476;2024-03-23T07:14:00;11.30;94.30
42479;DHT22;28110;47.080;9.476;2024-03-23T07:16:27;11.30;95.00
42479;DHT22;28110;47.080;9.476;2024-03-23T07:18:52;11.30;95.50
42479;DHT22;28110;47.080;9.476;2024-03-23T07:21:18;11.30;95.90
42479;DHT22;28110;47.080;9.476;2024-03-23T07:23:43;11.50;95.60
42479;DHT22;28110;47.080;9.476;2024-03-23T07:26:10;11.60;95.80
42479;DHT22;28110;47.080;9.476;2024-03-23T07:28:36;11.80;94.10
42479;DHT22;28110;47.080;9.476;2024-03-23T07:31:04;11.90;93.60
42479;DHT22;28110;47.080;9.476;2024-03-23T07:33:29;12.00;93.50
42479;DHT22;28110;47.080;9.476;2024-03-23T07:35:55;12.00;92.30
42479;DHT22;28110;47.080;9.476;2024-03-23T07:38:21;12.00;91.70
42479;DHT22;28110;47.080;9.476;2024-03-23T07:40:46;12.00;93.00
42479;DHT22;28110;47.080;9.476;2024-03-23T07:43:12;12.10;92.90
42479;DHT22;28110;47.080;9.476;2024-03-23T07:45:37;12.10;93.50
42479;DHT22;28110;47.080;9.476;2024-03-23T07:48:04;12.10;92.70
42479;DHT22;28110;47.080;9.476;2024-03-23T07:50:29;12.10;93.80
42479;DHT22;28110;47.080;9.476;2024-03-23T07:52:55;12.20;92.80
42479;DHT22;28110;47.080;9.476;2024-03-23T07:55:21;12.30;93.10
42479;DHT22;28110;47.080;9.476;2024-03-23T07:57:46;12.40;93.60
42479;DHT22;28110;47.080;9.476;2024-03-23T08:00:12;12.50;92.90
42479;DHT22;28110;47.080;9.476;2024-03-23T08:02:38;12.50;93.50
42479;DHT22;28110;47.080;9.476;2024-03-23T08:05:04;12.50;93.40
42479;DHT22;28110;47.080;9.476;2024-03-23T08:07:30;12.50;94.20
42479;DHT22;28110;47.080;9.476;2024-03-23T08:09:55;12.50;93.60
42479;DHT22;28110;47.080;9.476;2024-03-23T08:12:21;12.60;96.00
42479;DHT22;28110;47.080;9.476;2024-03-23T08:14:46;12.50;98.10
42479;DHT22;28110;47.080;9.476;2024-03-23T08:17:12;12.50;99.70
42479;DHT22;28110;47.080;9.476;2024-03-23T08:19:37;12.40;99.90
42479;DHT22;28110;47.080;9.476;2024-03-23T08:22:03;12.20;99.90
42479;DHT22;28110;47.080;9.476;2024-03-23T08:24:28;12.00;99.90
42479;DHT22;28110;47.080;9.476;2024-03-23T08:26:55;11.80;99.90
42479;DHT22;28110;47.080;9.476;2024-03-23T08:29:21;11.70;99.90
42479;DHT22;28110;47.080;9.476;2024-03-23T08:31:46;11.60;99.90
42479;DHT22;28110;47.080;9.476;2024-03-23T08:34:12;11.50;99.90
42479;DHT22;28110;47.080;9.476;2024-03-23T08:36:37;11.50;99.90
42479;DHT22;28110;47.080;9.476;2024-03-23T08:39:03;11.40;99.90
42479;DHT22;28110;47.080;9.476;2024-03-23T08:41:28;11.40;99.90
42479;DHT22;28110;47.080;9.476;2024-03-23T08:43:54;11.40;99.90
42479;DHT22;28110;47.080;9.476;2024-03-23T08:46:20;11.40;99.90
42479;DHT22;28110;47.080;9.476;2024-03-23T08:48:46;11.40;99.90
42479;DHT22;28110;47.080;9.476;2024-03-23T08:51:15;11.30;99.90
42479;DHT22;28110;47.080;9.476;2024-03-23T08:53:41;11.30;99.90
42479;DHT22;28110;47.080;9.476;2024-03-23T08:56:08;11.20;99.90
42479;DHT22;28110;47.080;9.476;2024-03-23T08:58:35;11.20;99.90
42479;DHT22;28110;47.080;9.476;2024-03-23T09:01:07;11.30;99.90
42479;DHT22;28110;47.080;9.476;2024-03-23T09:03:32;11.20;99.90
42479;DHT22;28110;47.080;9.476;2024-03-23T09:05:58;11.20;99.90
42479;DHT22;28110;47.080;9.476;2024-03-23T09:08:24;11.20;99.90
42479;DHT22;28110;47.080;9.476;2024-03-23T09:10:52;11.20;99.90
42479;DHT22;28110;47.080;9.476;2024-03-23T09:13:17;11.20;99.90
42479;DHT22;28110;47.080;9.476;2024-03-23T09:15:50;11.20;99.90
42479;DHT22;28110;47.080;9.476;2024-03-23T09:18:16;11.20;99.90
42479;DHT22;28110;47.080;9.476;2024-03-23T09:20:42;11.20;99.90
42479;DHT22;28110;47.080;9.476;2024-03-23T09:23:08;11.30;99.90
42479;DHT22;28110;47.080;9.476;2024-03-23T09:25:37;11.30;99.90
42479;DHT22;28110;47.080;9.476;2024-03-23T09:28:04;11.40;99.90
42479;DHT22;28110;47.080;9.476;2024-03-23T09:30:30;11.40;99.90
42479;DHT22;28110;47.080;9.476;2024-03-23T09:32:57;11.40;99.90
42479;DHT22;28110;47.080;9.476;2024-03-23T09:35:22;11.50;99.90
42479;DHT22;28110;47.080;9.476;2024-03-23T09:37:48;11.50;99.90
42479;DHT22;28110;47.080;9.476;2024-03-23T09:40:13;11.40;99.90
42479;DHT22;28110;47.080;9.476;2024-03-23T09:42:40;11.30;99.90
42479;DHT22;28110;47.080;9.476;2024-03-23T09:45:06;11.30;99.90
42479;DHT22;28110;47.080;9.476;2024-03-23T09:47:36;11.30;99.90
42479;DHT22;28110;47.080;9.476;2024-03-23T09:50:02;11.20;99.90
42479;DHT22;28110;47.080;9.476;2024-03-23T09:52:30;11.20;99.90
42479;DHT22;28110;47.080;9.476;2024-03-23T09:54:55;11.20;99.90
42479;DHT22;28110;47.080;9.476;2024-03-23T09:57:21;11.10;99.90
42479;DHT22;28110;47.080;9.476;2024-03-23T09:59:46;11.20;99.90
42479;DHT22;28110;47.080;9.476;2024-03-23T10:02:12;11.10;99.90
42479;DHT22;28110;47.080;9.476;2024-03-23T10:04:42;11.00;99.90
42479;DHT22;28110;47.080;9.476;2024-03-23T10:07:12;11.00;99.90
42479;DHT22;28110;47.080;9.476;2024-03-23T10:09:38;11.00;99.90
42479;DHT22;28110;47.080;9.476;2024-03-23T10:12:12;10.90;99.90
42479;DHT22;28110;47.080;9.476;2024-03-23T10:14:39;10.90;99.90
42479;DHT22;28110;47.080;9.476;2024-03-23T10:17:31;10.80;99.90
42479;DHT22;28110;47.080;9.476;2024-03-23T10:19:57;10.70;99.90
42479;DHT22;28110;47.080;9.476;2024-03-23T10:22:23;10.60;99.90
42479;DHT22;28110;47.080;9.476;2024-03-23T10:24:52;10.40;99.90
42479;DHT22;28110;47.080;9.476;2024-03-23T10:27:21;10.30;99.90
42479;DHT22;28110;47.080;9.476;2024-03-23T10:29:48;10.30;99.90
42479;DHT22;28110;47.080;9.476;2024-03-23T10:32:17;10.20;99.90
42479;DHT22;28110;47.080;9.476;2024-03-23T10:34:43;10.20;99.90
42479;DHT22;28110;47.080;9.476;2024-03-23T10:37:09;10.20;99.90
42479;DHT22;28110;47.080;9.476;2024-03-23T10:39:37;10.10;99.90
42479;DHT22;28110;47.080;9.476;2024-03-23T10:42:07;10.10;99.90
42479;DHT22;28110;47.080;9.476;2024-03-23T10:44:40;10.10;99.90
42479;DHT22;28110;47.080;9.476;2024-03-23T10:47:05;10.00;99.90
42479;DHT22;28110;47.080;9.476;2024-03-23T10:49:32;10.00;99.90
42479;DHT22;28110;47.080;9.476;2024-03-23T10:51:59;10.00;99.90
42479;DHT22;28110;47.080;9.476;2024-03-23T10:54:26;10.00;99.90
42479;DHT22;28110;47.080;9.476;2024-03-23T10:57:14;10.00;99.90
42479;DHT22;28110;47.080;9.476;2024-03-23T10:59:40;10.00;99.90
42479;DHT22;28110;47.080;9.476;2024-03-23T11:02:06;10.00;99.90
42479;DHT22;28110;47.080;9.476;2024-03-23T11:04:36;10.10;99.90
42479;DHT22;28110;47.080;9.476;2024-03-23T11:09:53;10.10;99.90
42479;DHT22;28110;47.080;9.476;2024-03-23T11:14:55;10.10;99.90
42479;DHT22;28110;47.080;9.476;2024-03-23T11:17:22;10.10;99.90
42479;DHT22;28110;47.080;9.476;2024-03-23T11:25:31;10.30;99.90
42479;DHT22;28110;47.080;9.476;2024-03-23T11:28:10;10.30;99.90
42479;DHT22;28110;47.080;9.476;2024-03-23T11:30:37;10.30;99.90
42479;DHT22;28110;47.080;9.476;2024-03-23T11:33:06;10.30;99.90
42479;DHT22;28110;47.080;9.476;2024-03-23T11:38:15;10.20;99.90
42479;DHT22;28110;47.080;9.476;2024-03-23T11:40:47;10.10;99.90
42479;DHT22;28110;47.080;9.476;2024-03-23T11:43:14;9.90;99.90
42479;DHT22;28110;47.080;9.476;2024-03-23T11:48:11;9.80;99.90
42479;DHT22;28110;47.080;9.476;2024-03-23T11:50:44;9.70;99.90
42479;DHT22;28110;47.080;9.476;2024-03-23T11:53:20;9.70;99.90
42479;DHT22;28110;47.080;9.476;2024-03-23T11:56:06;9.70;99.90
42479;DHT22;28110;47.080;9.476;2024-03-23T11:58:32;9.60;99.90
42479;DHT22;28110;47.080;9.476;2024-03-23T12:00:58;9.60;99.90
42479;DHT22;28110;47.080;9.476;2024-03-23T12:03:25;9.60;99.90
42479;DHT22;28110;47.080;9.476;2024-03-23T12:05:55;9.70;99.90
42479;DHT22;28110;47.080;9.476;2024-03-23T12:08:22;9.50;99.90
42479;DHT22;28110;47.080;9.476;2024-03-23T12:10:49;9.40;99.90
42479;DHT22;28110;47.080;9.476;2024-03-23T12:13:20;9.30;99.90
42479;DHT22;28110;47.080;9.476;2024-03-23T12:15:50;9.40;99.90
42479;DHT22;28110;47.080;9.476;2024-03-23T12:18:17;9.40;99.90
42479;DHT22;28110;47.080;9.476;2024-03-23T12:20:42;9.30;99.90
42479;DHT22;28110;47.080;9.476;2024-03-23T12:23:10;9.30;99.90
42479;DHT22;28110;47.080;9.476;2024-03-23T12:25:37;9.20;99.90
42479;DHT22;28110;47.080;9.476;2024-03-23T12:28:03;9.20;99.90
42479;DHT22;28110;47.080;9.476;2024-03-23T12:30:40;9.10;99.90
42479;DHT22;28110;47.080;9.476;2024-03-23T12:33:06;9.00;99.90
42479;DHT22;28110;47.080;9.476;2024-03-23T12:35:32;9.00;99.90
42479;DHT22;28110;47.080;9.476;2024-03-23T12:37:57;9.00;99.90
42479;DHT22;28110;47.080;9.476;2024-03-23T12:40:23;9.00;99.90
42479;DHT22;28110;47.080;9.476;2024-03-23T12:42:49;9.10;99.90
42479;DHT22;28110;47.080;9.476;2024-03-23T12:45:14;9.20;99.90
42479;DHT22;28110;47.080;9.476;2024-03-23T12:47:40;9.10;99.90
42479;DHT22;28110;47.080;9.476;2024-03-23T12:50:06;9.20;99.90
42479;DHT22;28110;47.080;9.476;2024-03-23T12:52:32;9.30;99.90
42479;DHT22;28110;47.080;9.476;2024-03-23T12:54:58;9.20;99.90
42479;DHT22;28110;47.080;9.476;2024-03-23T12:57:24;9.00;99.90
42479;DHT22;28110;47.080;9.476;2024-03-23T12:59:53;8.90;99.90
42479;DHT22;28110;47.080;9.476;2024-03-23T13:02:22;9.00;99.90
42479;DHT22;28110;47.080;9.476;2024-03-23T13:04:52;9.10;99.90
42479;DHT22;28110;47.080;9.476;2024-03-23T13:07:19;9.20;99.90
42479;DHT22;28110;47.080;9.476;2024-03-23T13:09:45;9.30;99.90
42479;DHT22;28110;47.080;9.476;2024-03-23T13:12:11;9.40;99.90
42479;DHT22;28110;47.080;9.476;2024-03-23T13:14:39;9.30;99.90
42479;DHT22;28110;47.080;9.476;2024-03-23T13:17:05;9.60;99.90
42479;DHT22;28110;47.080;9.476;2024-03-23T13:19:31;9.70;99.90
42479;DHT22;28110;47.080;9.476;2024-03-23T13:21:58;9.80;99.90
42479;DHT22;28110;47.080;9.476;2024-03-23T13:24:27;9.90;99.90
42479;DHT22;28110;47.080;9.476;2024-03-23T13:26:54;9.90;99.90
42479;DHT22;28110;47.080;9.476;2024-03-23T13:29:20;10.00;99.90
42479;DHT22;28110;47.080;9.476;2024-03-23T13:31:46;10.10;99.90
42479;DHT22;28110;47.080;9.476;2024-03-23T13:34:12;10.00;99.90
42479;DHT22;28110;47.080;9.476;2024-03-23T13:36:42;10.10;99.90
42479;DHT22;28110;47.080;9.476;2024-03-23T13:39:08;10.10;99.90
42479;DHT22;28110;47.080;9.476;2024-03-23T13:41:44;10.10;99.90
42479;DHT22;28110;47.080;9.476;2024-03-23T13:44:11;10.00;99.90
42479;DHT22;28110;47.080;9.476;2024-03-23T13:46:38;10.00;99.90
42479;DHT22;28110;47.080;9.476;2024-03-23T13:49:05;10.00;99.90
42479;DHT22;28110;47.080;9.476;2024-03-23T13:51:30;9.90;99.90
42479;DHT22;28110;47.080;9.476;2024-03-23T13:53:56;10.00;99.90
42479;DHT22;28110;47.080;9.476;2024-03-23T13:56:25;10.10;99.90
42479;DHT22;28110;47.080;9.476;2024-03-23T13:58:50;10.30;99.90
42479;DHT22;28110;47.080;9.476;2024-03-23T14:01:16;10.30;99.90
42479;DHT22;28110;47.080;9.476;2024-03-23T14:03:43;10.20;99.90
42479;DHT22;28110;47.080;9.476;2024-03-23T14:06:09;10.20;99.90
42479;DHT22;28110;47.080;9.476;2024-03-23T14:08:38;10.10;99.90
42479;DHT22;28110;47.080;9.476;2024-03-23T14:11:07;10.10;99.90
42479;DHT22;28110;47.080;9.476;2024-03-23T14:13:34;10.00;99.90
42479;DHT22;28110;47.080;9.476;2024-03-23T14:15:59;10.00;99.90
42479;DHT22;28110;47.080;9.476;2024-03-23T14:18:25;10.10;99.90
42479;DHT22;28110;47.080;9.476;2024-03-23T14:20:58;10.20;99.90
42479;DHT22;28110;47.080;9.476;2024-03-23T14:23:27;10.20;99.90
42479;DHT22;28110;47.080;9.476;2024-03-23T14:25:55;10.20;99.90
42479;DHT22;28110;47.080;9.476;2024-03-23T14:28:21;10.30;99.90
42479;DHT22;28110;47.080;9.476;2024-03-23T14:30:48;10.40;99.90
42479;DHT22;28110;47.080;9.476;2024-03-23T14:33:15;10.30;99.90
42479;DHT22;28110;47.080;9.476;2024-03-23T14:35:41;10.20;99.90
42479;DHT22;28110;47.080;9.476;2024-03-23T14:38:06;10.20;99.90
42479;DHT22;28110;47.080;9.476;2024-03-23T14:40:32;10.20;99.90
42479;DHT22;28110;47.080;9.476;2024-03-23T14:42:57;10.30;99.90
42479;DHT22;28110;47.080;9.476;2024-03-23T14:45:23;10.30;99.90
42479;DHT22;28110;47.080;9.476;2024-03-23T14:47:50;10.20;95.80
42479;DHT22;28110;47.080;9.476;2024-03-23T14:50:16;10.20;97.20
42479;DHT22;28110;47.080;9.476;2024-03-23T14:52:45;10.30;98.70
42479;DHT22;28110;47.080;9.476;2024-03-23T14:55:11;10.20;97.20
42479;DHT22;28110;47.080;9.476;2024-03-23T14:57:37;10.20;96.80
42479;DHT22;28110;47.080;9.476;2024-03-23T15:00:08;10.20;98.00
42479;DHT22;28110;47.080;9.476;2024-03-23T15:02:39;10.30;97.70
42479;DHT22;28110;47.080;9.476;2024-03-23T15:05:05;10.30;97.80
42479;DHT22;28110;47.080;9.476;2024-03-23T15:07:34;10.40;96.90
42479;DHT22;28110;47.080;9.476;2024-03-23T15:10:00;10.40;98.50
42479;DHT22;28110;47.080;9.476;2024-03-23T15:12:25;10.40;98.70
42479;DHT22;28110;47.080;9.476;2024-03-23T15:14:51;10.50;97.50
42479;DHT22;28110;47.080;9.476;2024-03-23T15:17:16;10.50;96.50
42479;DHT22;28110;47.080;9.476;2024-03-23T15:19:42;10.50;96.80
42479;DHT22;28110;47.080;9.476;2024-03-23T15:22:08;10.50;96.60
42479;DHT22;28110;47.080;9.476;2024-03-23T15:24:34;10.50;98.60
42479;DHT22;28110;47.080;9.476;2024-03-23T15:27:01;10.50;99.30
42479;DHT22;28110;47.080;9.476;2024-03-23T15:29:27;10.50;95.90
42479;DHT22;28110;47.080;9.476;2024-03-23T15:31:52;10.40;95.00
42479;DHT22;28110;47.080;9.476;2024-03-23T15:34:19;10.40;95.00
42479;DHT22;28110;47.080;9.476;2024-03-23T15:36:50;10.40;95.70
42479;DHT22;28110;47.080;9.476;2024-03-23T15:39:17;10.30;94.00
42479;DHT22;28110;47.080;9.476;2024-03-23T15:41:44;10.30;93.00
42479;DHT22;28110;47.080;9.476;2024-03-23T15:44:10;10.20;94.70
42479;DHT22;28110;47.080;9.476;2024-03-23T15:46:35;10.20;94.50
42479;DHT22;28110;47.080;9.476;2024-03-23T15:49:01;10.10;95.60
42479;DHT22;28110;47.080;9.476;2024-03-23T15:51:27;10.00;94.50
42479;DHT22;28110;47.080;9.476;2024-03-23T15:53:57;9.90;95.80
42479;DHT22;28110;47.080;9.476;2024-03-23T15:56:23;9.90;92.50
42479;DHT22;28110;47.080;9.476;2024-03-23T15:58:48;9.90;93.30
42479;DHT22;28110;47.080;9.476;2024-03-23T16:01:14;9.90;94.50
42479;DHT22;28110;47.080;9.476;2024-03-23T16:03:39;9.80;93.20
42479;DHT22;28110;47.080;9.476;2024-03-23T16:06:06;9.80;93.60
42479;DHT22;28110;47.080;9.476;2024-03-23T16:08:35;9.80;93.60
42479;DHT22;28110;47.080;9.476;2024-03-23T16:11:02;9.80;93.20
42479;DHT22;28110;47.080;9.476;2024-03-23T16:13:28;9.70;92.70
42479;DHT22;28110;47.080;9.476;2024-03-23T16:15:57;9.70;92.00
42479;DHT22;28110;47.080;9.476;2024-03-23T16:18:23;9.70;92.70
42479;DHT22;28110;47.080;9.476;2024-03-23T16:20:55;9.70;92.20
42479;DHT22;28110;47.080;9.476;2024-03-23T16:23:21;9.60;93.60
42479;DHT22;28110;47.080;9.476;2024-03-23T16:25:48;9.70;94.40
42479;DHT22;28110;47.080;9.476;2024-03-23T16:28:27;9.60;94.30
42479;DHT22;28110;47.080;9.476;2024-03-23T16:31:01;9.60;94.00
42479;DHT22;28110;47.080;9.476;2024-03-23T16:33:28;9.50;94.40
42479;DHT22;28110;47.080;9.476;2024-03-23T16:36:03;9.50;94.10
42479;DHT22;28110;47.080;9.476;2024-03-23T16:38:37;9.50;92.80